| time (UTC) | temp F | wind direction | speed knots | gust knots | rain 1hr in | rain 24hr in | rain mn in | humidity % | barometer mb |
| 20260506134043 | 76 | 247 | 0.0 | 0.0 | 0.00 | 0.00 | 0.00 | 38 | 1111.0 |
| 20260506133043 | 76 | 270 | 0.0 | 0.0 | 0.00 | 0.00 | 0.00 | 38 | 1111.0 |
| 20260506132043 | 76 | 270 | 0.0 | 0.0 | 0.00 | 0.00 | 0.00 | 38 | 1111.0 |
| 20260506131043 | 75 | 247 | 0.0 | 0.0 | 0.00 | 0.00 | 0.00 | 39 | 1111.0 |
| 20260506130043 | 74 | 270 | 0.0 | 0.0 | 0.00 | 0.00 | 0.00 | 40 | 1111.0 |
| 20260506125043 | 72 | 270 | 0.0 | 0.0 | 0.00 | 0.00 | 0.00 | 42 | 1111.0 |
| 20260506124043 | 71 | 270 | 0.0 | 0.0 | 0.00 | 0.00 | 0.00 | 43 | 1111.0 |
| 20260506123043 | 71 | 247 | 0.0 | 0.0 | 0.00 | 0.00 | 0.00 | 43 | 1111.0 |
| 20260506122043 | 71 | 270 | 0.0 | 0.0 | 0.00 | 0.00 | 0.00 | 44 | 1111.0 |
| 20260506121043 | 71 | 270 | 0.0 | 0.0 | 0.00 | 0.00 | 0.00 | 45 | 1111.0 |
| 20260506120043 | 71 | 247 | 0.0 | 0.0 | 0.00 | 0.00 | 0.00 | 46 | 1111.0 |
| 20260506115043 | 71 | 247 | 0.0 | 0.0 | 0.00 | 0.00 | 0.00 | 46 | 1111.0 |
| 20260506114043 | 71 | 247 | 0.0 | 0.0 | 0.00 | 0.00 | 0.00 | 44 | 1111.0 |
| 20260506113043 | 72 | 247 | 0.0 | 0.0 | 0.00 | 0.00 | 0.00 | 46 | 1111.0 |
| 20260506112043 | 71 | 270 | 0.0 | 0.0 | 0.00 | 0.00 | 0.00 | 47 | 1111.0 |
| 20260506111043 | 71 | 247 | 0.0 | 0.0 | 0.00 | 0.00 | 0.00 | 46 | 1111.0 |
| 20260506110043 | 71 | 270 | 0.0 | 0.0 | 0.00 | 0.00 | 0.00 | 47 | 1111.0 |
| 20260506105043 | 71 | 270 | 0.0 | 0.0 | 0.00 | 0.00 | 0.00 | 47 | 1111.0 |
| 20260506104043 | 71 | 270 | 0.0 | 0.0 | 0.00 | 0.00 | 0.00 | 47 | 1111.0 |
| 20260506103043 | 71 | 270 | 0.0 | 0.0 | 0.00 | 0.00 | 0.00 | 47 | 1111.0 |
| 20260506102043 | 71 | 270 | 0.0 | 0.0 | 0.00 | 0.00 | 0.00 | 48 | 1111.0 |
| 20260506101043 | 72 | 247 | 0.0 | 0.0 | 0.00 | 0.00 | 0.00 | 46 | 1111.0 |
| 20260506100043 | 72 | 247 | 0.0 | 0.0 | 0.00 | 0.00 | 0.00 | 45 | 1111.0 |
| 20260506095043 | 72 | 247 | 0.0 | 0.0 | 0.00 | 0.00 | 0.00 | 45 | 1111.0 |
| 20260506094043 | 71 | 270 | 0.0 | 0.0 | 0.00 | 0.00 | 0.00 | 45 | 1111.0 |
| 20260506093043 | 72 | 247 | 0.0 | 0.0 | 0.00 | 0.00 | 0.00 | 45 | 1111.0 |
| 20260506092043 | 72 | 270 | 0.0 | 0.0 | 0.00 | 0.00 | 0.00 | 44 | 1111.0 |
| 20260506091043 | 73 | 225 | 0.0 | 0.0 | 0.00 | 0.00 | 0.00 | 43 | 1111.0 |
| 20260506090043 | 73 | 247 | 0.0 | 0.0 | 0.00 | 0.00 | 0.00 | 43 | 1111.0 |
| 20260506085043 | 74 | 225 | 0.0 | 0.0 | 0.00 | 0.00 | 0.00 | 42 | 1111.0 |
| 20260506084043 | 76 | 270 | 0.0 | 0.0 | 0.00 | 0.00 | 0.00 | 40 | 1111.0 |
| 20260506083043 | 77 | 247 | 0.0 | 0.0 | 0.00 | 0.00 | 0.00 | 38 | 1111.0 |
| 20260506082043 | 79 | 247 | 0.0 | 0.0 | 0.00 | 0.00 | 0.00 | 36 | 1111.0 |
| 20260506081043 | 84 | 247 | 0.0 | 0.0 | 0.00 | 0.00 | 0.00 | 36 | 1111.0 |
| 20260506073043 | 82 | 67 | 0.0 | 0.0 | 0.00 | 0.00 | 0.00 | 40 | 1111.0 |
| 20260506072043 | 79 | 67 | 0.0 | 0.0 | 0.00 | 0.00 | 0.00 | 43 | 1111.0 |
| 20260506071044 | 73 | 67 | 0.0 | 0.0 | 0.00 | 0.00 | 0.00 | 51 | 1111.0 |
| 20260506062044 | 61 | 67 | 0.0 | 0.0 | 0.00 | 0.00 | 0.00 | 65 | 1111.0 |
| 20260506061044 | 60 | 135 | 0.0 | 0.0 | 0.00 | 0.00 | 0.00 | 66 | 1111.0 |
| 20260506051044 | 58 | 67 | 0.0 | 0.0 | 0.00 | 0.00 | 0.00 | 72 | 1111.0 |
| 20260506045044 | 56 | 67 | 0.0 | 0.0 | 0.00 | 0.00 | 0.00 | 73 | 1111.0 |
| 20260506044044 | 56 | 67 | 0.0 | 0.0 | 0.00 | 0.00 | 0.00 | 74 | 1111.0 |
| 20260506043044 | 56 | 135 | 0.0 | 0.0 | 0.00 | 0.00 | 0.00 | 74 | 1111.0 |
| 20260506042044 | 56 | 135 | 0.0 | 0.0 | 0.00 | 0.00 | 0.00 | 75 | 1111.0 |
| 20260506041044 | 55 | 112 | 0.0 | 0.0 | 0.00 | 0.00 | 0.00 | 75 | 1111.0 |
| 20260506040044 | 55 | 67 | 0.0 | 0.0 | 0.00 | 0.00 | 0.00 | 75 | 1111.0 |
| 20260506035044 | 55 | 0 | 0.0 | 0.0 | 0.00 | 0.00 | 0.00 | 75 | 1111.0 |
| 20260506034044 | 55 | 337 | 0.0 | 0.0 | 0.00 | 0.00 | 0.00 | 75 | 1111.0 |
| 20260506033044 | 56 | 337 | 0.0 | 0.0 | 0.00 | 0.00 | 0.00 | 75 | 1111.0 |
| 20260506032044 | 56 | 315 | 0.0 | 0.0 | 0.00 | 0.00 | 0.00 | 75 | 1111.0 |
| 20260506031044 | 56 | 45 | 0.0 | 0.0 | 0.00 | 0.00 | 0.00 | 74 | 1111.0 |
| 20260506030044 | 56 | 247 | 0.0 | 0.0 | 0.00 | 0.00 | 0.00 | 74 | 1111.0 |
| 20260506025044 | 57 | 45 | 0.0 | 0.0 | 0.00 | 0.00 | 0.00 | 75 | 1111.0 |
| 20260506024044 | 57 | 157 | 0.0 | 0.0 | 0.00 | 0.00 | 0.00 | 75 | 1111.0 |
| 20260506023044 | 57 | 112 | 0.0 | 0.0 | 0.00 | 0.00 | 0.00 | 75 | 1111.0 |
| 20260506022044 | 57 | 135 | 0.0 | 0.0 | 0.00 | 0.00 | 0.00 | 75 | 1111.0 |
| 20260506021044 | 57 | 135 | 0.0 | 0.0 | 0.00 | 0.00 | 0.00 | 74 | 1111.0 |
| 20260506020044 | 57 | 22 | 0.0 | 0.0 | 0.00 | 0.00 | 0.00 | 74 | 1111.0 |
| 20260506015044 | 57 | 90 | 0.0 | 0.0 | 0.00 | 0.00 | 0.00 | 74 | 1111.0 |
| 20260506014044 | 57 | 45 | 0.0 | 0.0 | 0.00 | 0.00 | 0.00 | 74 | 1111.0 |
| 20260506013044 | 57 | 315 | 0.0 | 0.0 | 0.00 | 0.00 | 0.00 | 73 | 1111.0 |
| 20260506012044 | 58 | 67 | 0.0 | 0.0 | 0.00 | 0.00 | 0.00 | 72 | 1111.0 |
| 20260506011044 | 58 | 135 | 0.0 | 0.0 | 0.00 | 0.00 | 0.00 | 71 | 1111.0 |
| 20260506010044 | 58 | 202 | 0.0 | 0.0 | 0.00 | 0.00 | 0.00 | 71 | 1111.0 |
| 20260506005044 | 59 | 112 | 0.0 | 0.0 | 0.00 | 0.00 | 0.00 | 69 | 1111.0 |
| 20260506004044 | 59 | 337 | 0.0 | 0.0 | 0.00 | 0.00 | 0.00 | 69 | 1111.0 |
| 20260506003044 | 59 | 22 | 0.0 | 0.0 | 0.00 | 0.00 | 0.00 | 68 | 1111.0 |
| 20260506002044 | 60 | 270 | 0.0 | 0.0 | 0.00 | 0.00 | 0.00 | 67 | 1111.0 |
| 20260506001044 | 60 | 315 | 0.0 | 0.0 | 0.00 | 0.00 | 0.00 | 66 | 1111.0 |
| 20260505235043 | 60 | 67 | 0.0 | 0.0 | 0.00 | 0.00 | 0.00 | 65 | 1111.0 |
| 20260505234043 | 60 | 45 | 0.0 | 0.0 | 0.00 | 0.00 | 0.00 | 65 | 1111.0 |
| 20260505233043 | 60 | 22 | 0.0 | 0.0 | 0.00 | 0.00 | 0.00 | 65 | 1111.0 |
| 20260505232043 | 60 | 22 | 0.0 | 0.0 | 0.00 | 0.00 | 0.00 | 65 | 1111.0 |
| 20260505231043 | 60 | 0 | 0.0 | 0.0 | 0.00 | 0.00 | 0.00 | 65 | 1111.0 |
| 20260505230043 | 59 | 225 | 0.0 | 0.0 | 0.00 | 0.00 | 0.00 | 65 | 1111.0 |
| 20260505225043 | 59 | 315 | 0.0 | 0.0 | 0.00 | 0.00 | 0.00 | 63 | 1111.0 |
| 20260505224043 | 60 | 45 | 0.0 | 0.0 | 0.00 | 0.00 | 0.00 | 63 | 1111.0 |
| 20260505223043 | 60 | 22 | 0.0 | 0.0 | 0.00 | 0.00 | 0.00 | 63 | 1111.0 |
| 20260505222043 | 60 | 45 | 0.0 | 0.0 | 0.00 | 0.00 | 0.00 | 62 | 1111.0 |
| 20260505221043 | 60 | 337 | 0.0 | 0.0 | 0.00 | 0.00 | 0.00 | 62 | 1111.0 |
| 20260505220043 | 60 | 112 | 0.0 | 0.0 | 0.00 | 0.00 | 0.00 | 61 | 1111.0 |
| 20260505215043 | 60 | 112 | 0.0 | 0.0 | 0.00 | 0.00 | 0.00 | 61 | 1111.0 |
| 20260505214043 | 61 | 112 | 0.0 | 0.0 | 0.00 | 0.00 | 0.00 | 60 | 1111.0 |
| 20260505213043 | 61 | 337 | 0.0 | 0.0 | 0.00 | 0.00 | 0.00 | 59 | 1111.0 |
| 20260505212043 | 61 | 270 | 0.0 | 0.0 | 0.00 | 0.00 | 0.00 | 59 | 1111.0 |
| 20260505211043 | 60 | 225 | 0.0 | 0.0 | 0.00 | 0.00 | 0.00 | 58 | 1111.0 |
| 20260505210043 | 59 | 135 | 0.0 | 0.0 | 0.00 | 0.00 | 0.00 | 59 | 1111.0 |
| 20260505205043 | 59 | 270 | 0.0 | 0.0 | 0.00 | 0.00 | 0.00 | 60 | 1111.0 |
| 20260505204043 | 59 | 270 | 0.0 | 0.0 | 0.00 | 0.00 | 0.00 | 60 | 1111.0 |
| 20260505203043 | 59 | 270 | 0.0 | 0.0 | 0.00 | 0.00 | 0.00 | 60 | 1111.0 |
| 20260505202043 | 59 | 247 | 0.0 | 0.0 | 0.00 | 0.00 | 0.00 | 59 | 1111.0 |
| 20260505201044 | 60 | 247 | 0.0 | 0.0 | 0.00 | 0.00 | 0.00 | 59 | 1111.0 |
| 20260505200044 | 60 | 270 | 0.0 | 0.0 | 0.00 | 0.00 | 0.00 | 58 | 1111.0 |
| 20260505195044 | 61 | 247 | 0.0 | 0.0 | 0.00 | 0.00 | 0.00 | 57 | 1111.0 |
| 20260505194044 | 61 | 270 | 0.0 | 0.0 | 0.00 | 0.00 | 0.00 | 55 | 1111.0 |
| 20260505193044 | 62 | 270 | 0.0 | 0.0 | 0.00 | 0.00 | 0.00 | 55 | 1111.0 |
| 20260505192044 | 62 | 247 | 0.0 | 0.0 | 0.00 | 0.00 | 0.00 | 54 | 1111.0 |
| 20260505191044 | 63 | 247 | 0.0 | 0.0 | 0.00 | 0.00 | 0.00 | 53 | 1111.0 |
| 20260505190044 | 64 | 247 | 0.0 | 0.0 | 0.00 | 0.00 | 0.00 | 52 | 1111.0 |
| 20260505185044 | 64 | 247 | 0.0 | 0.0 | 0.00 | 0.00 | 0.00 | 51 | 1111.0 |
| 20260505184044 | 64 | 270 | 0.0 | 0.0 | 0.00 | 0.00 | 0.00 | 50 | 1111.0 |
| 20260505183044 | 65 | 270 | 0.0 | 0.0 | 0.00 | 0.00 | 0.00 | 49 | 1111.0 |
| 20260505182044 | 66 | 270 | 0.0 | 0.0 | 0.00 | 0.00 | 0.00 | 48 | 1111.0 |
| 20260505181044 | 66 | 247 | 0.0 | 0.0 | 0.00 | 0.00 | 0.00 | 47 | 1111.0 |
| 20260505180044 | 67 | 270 | 0.0 | 0.0 | 0.00 | 0.00 | 0.00 | 46 | 1111.0 |
| 20260505175044 | 68 | 247 | 0.0 | 0.0 | 0.00 | 0.00 | 0.00 | 46 | 1111.0 |
| 20260505174044 | 68 | 247 | 0.0 | 0.0 | 0.00 | 0.00 | 0.00 | 45 | 1111.0 |
| 20260505173044 | 69 | 270 | 0.0 | 0.0 | 0.00 | 0.00 | 0.00 | 44 | 1111.0 |
| 20260505172044 | 70 | 270 | 0.0 | 0.0 | 0.00 | 0.00 | 0.00 | 44 | 1111.0 |
| 20260505171044 | 71 | 270 | 0.0 | 0.0 | 0.00 | 0.00 | 0.00 | 43 | 1111.0 |
| 20260505170044 | 71 | 270 | 0.0 | 0.0 | 0.00 | 0.00 | 0.00 | 42 | 1111.0 |
| 20260505165044 | 71 | 270 | 0.0 | 0.0 | 0.00 | 0.00 | 0.00 | 42 | 1111.0 |
| 20260505164044 | 71 | 270 | 0.0 | 0.0 | 0.00 | 0.00 | 0.00 | 42 | 1111.0 |
| 20260505163044 | 72 | 270 | 0.0 | 0.0 | 0.00 | 0.00 | 0.00 | 41 | 1111.0 |
| 20260505162044 | 73 | 270 | 0.0 | 0.0 | 0.00 | 0.00 | 0.00 | 40 | 1111.0 |
| 20260505161044 | 73 | 270 | 0.0 | 0.0 | 0.00 | 0.00 | 0.00 | 39 | 1111.0 |
| 20260505153044 | 75 | 225 | 0.0 | 0.0 | 0.00 | 0.00 | 0.00 | 35 | 1111.0 |
| 20260505152044 | 76 | 202 | 0.0 | 0.0 | 0.00 | 0.00 | 0.00 | 34 | 1111.0 |
| 20260505151044 | 77 | 270 | 0.0 | 0.0 | 0.00 | 0.00 | 0.00 | 33 | 1111.0 |